Time,TemperatureF,DewpointF,PressureIn,WindDirection,WindDirectionDegrees,WindSpeedMPH,WindSpeedGustMPH,Humidity,HourlyPrecipIn,Conditions,Clouds,dailyrainin,SoftwareType,DateUTC
2012-11-05 00:03:00,57.6,56.2,30.27,SW,225,1.3,8.9,95,0.00,,,0.00,WUHU216HW,2012-11-05 08:03:00,
2012-11-05 00:08:00,57.6,56.2,30.27,WSW,248,1.8,4.7,95,0.00,,,0.00,WUHU216HW,2012-11-05 08:08:00,
2012-11-05 00:13:00,57.4,56.0,30.27,ESE,113,1.1,3.8,95,0.00,,,0.00,WUHU216HW,2012-11-05 08:13:00,
2012-11-05 00:18:00,57.4,56.0,30.27,WSW,248,4.3,4.3,95,0.01,,,0.01,WUHU216HW,2012-11-05 08:18:00,
2012-11-05 00:23:00,57.4,56.0,30.27,WSW,248,0.9,4.3,95,0.01,,,0.01,WUHU216HW,2012-11-05 08:23:00,
2012-11-05 00:28:00,57.2,55.8,30.27,WSW,248,3.1,4.3,95,0.01,,,0.01,WUHU216HW,2012-11-05 08:28:00,
2012-11-05 00:33:00,57.2,55.8,30.27,SW,225,1.6,4.5,95,0.01,,,0.01,WUHU216HW,2012-11-05 08:33:00,
2012-11-05 00:38:00,57.2,55.8,30.27,WSW,248,1.3,4.5,95,0.01,,,0.01,WUHU216HW,2012-11-05 08:38:00,
2012-11-05 00:43:00,57.2,55.8,30.27,WSW,248,2.0,4.9,95,0.01,,,0.01,WUHU216HW,2012-11-05 08:43:00,
2012-11-05 00:48:00,57.1,55.6,30.28,West,270,2.5,4.9,95,0.01,,,0.01,WUHU216HW,2012-11-05 08:48:00,
2012-11-05 00:53:00,57.1,55.6,30.29,West,270,1.8,2.7,95,0.01,,,0.01,WUHU216HW,2012-11-05 08:53:00,
2012-11-05 00:58:00,56.5,55.1,30.29,ENE,68,6.9,6.9,95,0.01,,,0.01,WUHU216HW,2012-11-05 08:58:00,
2012-11-05 01:03:00,55.8,54.4,30.29,NNE,23,8.3,8.3,95,0.01,,,0.01,WUHU216HW,2012-11-05 09:03:00,
2012-11-05 01:08:00,55.1,53.6,30.29,NE,45,8.9,8.9,95,0.01,,,0.01,WUHU216HW,2012-11-05 09:08:00,
2012-11-05 01:13:00,54.5,53.1,30.30,East,90,7.6,8.9,95,0.00,,,0.01,WUHU216HW,2012-11-05 09:13:00,
2012-11-05 01:18:00,54.2,52.7,30.30,NNW,338,1.3,8.9,95,0.00,,,0.01,WUHU216HW,2012-11-05 09:18:00,
2012-11-05 01:23:00,53.8,52.4,30.30,NE,45,3.6,9.6,95,0.00,,,0.01,WUHU216HW,2012-11-05 09:23:00,
2012-11-05 01:28:00,53.6,52.2,30.31,NNE,23,1.8,9.6,95,0.00,,,0.01,WUHU216HW,2012-11-05 09:28:00,
2012-11-05 01:33:00,53.5,52.0,30.32,North,0,6.9,6.9,95,0.00,,,0.01,WUHU216HW,2012-11-05 09:33:00,
2012-11-05 01:38:00,53.3,51.8,30.32,NNW,338,2.9,6.9,95,0.00,,,0.01,WUHU216HW,2012-11-05 09:38:00,
2012-11-05 01:43:00,53.1,51.7,30.32,NNE,23,1.1,6.9,95,0.00,,,0.01,WUHU216HW,2012-11-05 09:43:00,
2012-11-05 01:48:00,52.9,51.5,30.32,North,0,3.8,7.4,95,0.01,,,0.02,WUHU216HW,2012-11-05 09:48:00,
2012-11-05 01:53:00,52.7,51.0,30.32,NNE,23,4.3,7.4,94,0.01,,,0.02,WUHU216HW,2012-11-05 09:53:00,
2012-11-05 01:58:00,52.7,51.0,30.32,ENE,68,2.0,6.9,94,0.01,,,0.02,WUHU216HW,2012-11-05 09:58:00,
2012-11-05 02:03:00,52.7,51.0,30.32,NE,45,1.8,6.9,94,0.02,,,0.03,WUHU216HW,2012-11-05 10:03:00,
2012-11-05 02:08:00,52.6,50.9,30.32,NNE,23,1.6,4.7,94,0.02,,,0.03,WUHU216HW,2012-11-05 10:08:00,
2012-11-05 02:13:00,52.6,50.9,30.32,NE,45,1.8,4.7,94,0.02,,,0.03,WUHU216HW,2012-11-05 10:13:00,
2012-11-05 02:18:00,52.6,50.9,30.32,East,90,1.6,3.8,94,0.02,,,0.03,WUHU216HW,2012-11-05 10:18:00,
2012-11-05 02:23:00,52.6,50.9,30.33,NE,45,2.5,3.8,94,0.02,,,0.03,WUHU216HW,2012-11-05 10:23:00,
2012-11-05 02:28:00,52.6,50.9,30.33,ENE,68,1.8,3.8,94,0.02,,,0.03,WUHU216HW,2012-11-05 10:28:00,
2012-11-05 02:33:00,52.6,50.9,30.33,NE,45,0.9,3.8,94,0.02,,,0.03,WUHU216HW,2012-11-05 10:33:00,
2012-11-05 02:38:00,52.6,51.1,30.33,NE,45,2.9,4.0,95,0.02,,,0.03,WUHU216HW,2012-11-05 10:38:00,
2012-11-05 02:43:00,52.6,51.1,30.33,ENE,68,3.4,4.0,95,0.02,,,0.03,WUHU216HW,2012-11-05 10:43:00,
2012-11-05 02:48:00,52.6,50.9,30.33,ENE,68,0.2,3.8,94,0.02,,,0.04,WUHU216HW,2012-11-05 10:48:00,
2012-11-05 02:53:00,52.4,50.9,30.33,ENE,68,6.0,10.3,95,0.02,,,0.04,WUHU216HW,2012-11-05 10:53:00,
2012-11-05 02:58:00,52.4,50.9,30.33,NNE,23,1.8,10.3,95,0.01,,,0.04,WUHU216HW,2012-11-05 10:58:00,
2012-11-05 03:03:00,52.4,50.9,30.33,NNE,23,1.6,5.1,95,0.01,,,0.04,WUHU216HW,2012-11-05 11:03:00,
2012-11-05 03:08:00,52.4,50.9,30.34,NE,45,1.6,2.2,95,0.01,,,0.04,WUHU216HW,2012-11-05 11:08:00,
2012-11-05 03:13:00,52.4,50.9,30.34,ENE,68,1.3,3.1,95,0.01,,,0.04,WUHU216HW,2012-11-05 11:13:00,
2012-11-05 03:18:00,52.4,50.9,30.33,ENE,68,2.0,3.1,95,0.01,,,0.04,WUHU216HW,2012-11-05 11:18:00,
2012-11-05 03:23:00,52.4,50.9,30.33,East,90,1.3,4.9,95,0.01,,,0.04,WUHU216HW,2012-11-05 11:23:00,
2012-11-05 03:28:00,52.4,50.9,30.33,ENE,68,2.7,4.9,95,0.01,,,0.04,WUHU216HW,2012-11-05 11:28:00,
2012-11-05 03:33:00,52.2,50.8,30.34,NE,45,1.3,3.4,95,0.01,,,0.04,WUHU216HW,2012-11-05 11:33:00,
2012-11-05 03:38:00,52.2,50.8,30.34,NNE,23,1.6,3.1,95,0.01,,,0.04,WUHU216HW,2012-11-05 11:38:00,
2012-11-05 03:43:00,52.2,50.8,30.34,ESE,113,3.8,4.0,95,0.01,,,0.04,WUHU216HW,2012-11-05 11:43:00,
2012-11-05 03:48:00,52.2,50.8,30.34,NNE,23,2.7,5.4,95,0.00,,,0.04,WUHU216HW,2012-11-05 11:48:00,
2012-11-05 03:53:00,52.2,50.8,30.34,East,90,1.8,5.4,95,0.00,,,0.04,WUHU216HW,2012-11-05 11:53:00,
2012-11-05 03:58:00,52.2,50.8,30.34,NE,45,1.3,2.9,95,0.00,,,0.04,WUHU216HW,2012-11-05 11:58:00,
2012-11-05 04:03:00,52.2,50.8,30.34,East,90,2.7,3.4,95,0.00,,,0.04,WUHU216HW,2012-11-05 12:03:00,
2012-11-05 04:08:00,52.2,50.8,30.34,NE,45,5.4,5.4,95,0.00,,,0.04,WUHU216HW,2012-11-05 12:08:00,
2012-11-05 04:13:00,52.2,50.8,30.34,East,90,4.0,8.7,95,0.00,,,0.04,WUHU216HW,2012-11-05 12:13:00,
2012-11-05 04:18:00,52.2,50.8,30.34,ENE,68,2.7,8.7,95,0.00,,,0.04,WUHU216HW,2012-11-05 12:18:00,
2012-11-05 04:23:00,52.0,50.6,30.34,ESE,113,1.6,4.0,95,0.00,,,0.04,WUHU216HW,2012-11-05 12:23:00,
2012-11-05 04:28:00,52.0,50.6,30.34,NNE,23,0.2,3.4,95,0.00,,,0.04,WUHU216HW,2012-11-05 12:28:00,
2012-11-05 04:33:00,52.0,50.6,30.34,North,0,0.0,1.8,95,0.00,,,0.04,WUHU216HW,2012-11-05 12:33:00,
2012-11-05 04:38:00,52.2,50.8,30.34,NNW,338,0.0,1.1,95,0.00,,,0.04,WUHU216HW,2012-11-05 12:38:00,
2012-11-05 04:43:00,52.2,50.8,30.35,NE,45,2.9,2.9,95,0.00,,,0.04,WUHU216HW,2012-11-05 12:43:00,
2012-11-05 04:48:00,52.2,50.8,30.35,East,90,0.4,2.9,95,0.00,,,0.04,WUHU216HW,2012-11-05 12:48:00,
2012-11-05 04:53:00,52.0,50.6,30.35,ESE,113,2.7,6.3,95,0.00,,,0.04,WUHU216HW,2012-11-05 12:53:00,
2012-11-05 04:58:00,51.8,50.4,30.36,ENE,68,1.3,6.3,95,0.00,,,0.04,WUHU216HW,2012-11-05 12:58:00,
2012-11-05 05:03:00,51.8,50.4,30.36,SE,135,1.1,2.7,95,0.00,,,0.04,WUHU216HW,2012-11-05 13:03:00,
2012-11-05 05:08:00,51.8,50.4,30.35,ENE,68,0.0,2.5,95,0.00,,,0.04,WUHU216HW,2012-11-05 13:08:00,
2012-11-05 05:13:00,52.0,50.6,30.35,ENE,68,0.9,2.0,95,0.00,,,0.04,WUHU216HW,2012-11-05 13:13:00,
2012-11-05 05:18:00,51.8,50.4,30.35,ENE,68,1.1,2.0,95,0.00,,,0.04,WUHU216HW,2012-11-05 13:18:00,
2012-11-05 05:23:00,51.8,50.4,30.35,ENE,68,1.3,1.3,95,0.00,,,0.04,WUHU216HW,2012-11-05 13:23:00,
2012-11-05 05:28:00,51.8,50.4,30.35,East,90,0.2,1.3,95,0.00,,,0.04,WUHU216HW,2012-11-05 13:28:00,
2012-11-05 05:33:00,51.8,50.4,30.35,East,90,1.1,1.3,95,0.00,,,0.04,WUHU216HW,2012-11-05 13:33:00,
2012-11-05 05:38:00,51.8,50.4,30.35,East,90,0.4,1.1,95,0.00,,,0.04,WUHU216HW,2012-11-05 13:38:00,
2012-11-05 05:43:00,51.8,50.4,30.35,East,90,0.2,1.1,95,0.00,,,0.04,WUHU216HW,2012-11-05 13:43:00,
2012-11-05 05:48:00,51.8,50.4,30.35,East,90,0.0,0.7,95,0.00,,,0.04,WUHU216HW,2012-11-05 13:48:00,
2012-11-05 05:53:00,51.8,50.4,30.34,ENE,68,1.1,1.1,95,0.00,,,0.04,WUHU216HW,2012-11-05 13:53:00,
2012-11-05 05:58:00,51.7,50.2,30.34,East,90,1.1,1.6,95,0.00,,,0.04,WUHU216HW,2012-11-05 13:58:00,
2012-11-05 06:03:00,51.5,50.0,30.34,ESE,113,0.7,1.6,95,0.00,,,0.04,WUHU216HW,2012-11-05 14:03:00,
2012-11-05 06:08:00,51.5,50.0,30.35,ENE,68,0.0,1.3,95,0.00,,,0.04,WUHU216HW,2012-11-05 14:08:00,
2012-11-05 06:13:00,51.5,50.0,30.35,ENE,68,0.0,0.7,95,0.00,,,0.04,WUHU216HW,2012-11-05 14:13:00,
2012-11-05 06:18:00,51.5,50.0,30.35,ENE,68,0.0,0.0,95,0.00,,,0.04,WUHU216HW,2012-11-05 14:18:00,
2012-11-05 06:23:00,51.3,49.9,30.35,NNE,23,0.0,0.9,95,0.00,,,0.04,WUHU216HW,2012-11-05 14:23:00,
2012-11-05 06:28:00,51.3,49.9,30.34,NNE,23,0.0,0.9,95,0.00,,,0.04,WUHU216HW,2012-11-05 14:28:00,
2012-11-05 06:33:00,51.1,49.7,30.35,NNE,23,0.0,0.0,95,0.00,,,0.04,WUHU216HW,2012-11-05 14:33:00,
2012-11-05 06:38:00,51.1,49.7,30.34,NNE,23,0.0,0.0,95,0.00,,,0.04,WUHU216HW,2012-11-05 14:38:00,
2012-11-05 06:43:00,50.9,49.5,30.35,NNE,23,0.2,2.0,95,0.00,,,0.04,WUHU216HW,2012-11-05 14:43:00,
2012-11-05 06:48:00,50.8,49.3,30.35,NE,45,0.4,2.0,95,0.01,,,0.05,WUHU216HW,2012-11-05 14:48:00,
2012-11-05 06:53:00,50.8,49.3,30.35,NNW,338,0.4,3.1,95,0.01,,,0.05,WUHU216HW,2012-11-05 14:53:00,
2012-11-05 06:58:00,50.8,49.3,30.35,NNW,338,0.7,3.1,95,0.01,,,0.05,WUHU216HW,2012-11-05 14:58:00,
2012-11-05 07:03:00,50.8,49.3,30.35,NNW,338,0.9,0.9,95,0.01,,,0.05,WUHU216HW,2012-11-05 15:03:00,
2012-11-05 07:08:00,50.8,49.3,30.36,NNW,338,0.0,0.9,95,0.01,,,0.05,WUHU216HW,2012-11-05 15:08:00,
2012-11-05 07:13:00,50.8,49.3,30.37,NNW,338,0.4,1.3,95,0.01,,,0.05,WUHU216HW,2012-11-05 15:13:00,
2012-11-05 07:18:00,50.8,49.3,30.36,NNW,338,0.0,1.3,95,0.01,,,0.05,WUHU216HW,2012-11-05 15:18:00,
2012-11-05 07:23:00,50.8,49.3,30.35,NNW,338,0.0,0.9,95,0.01,,,0.05,WUHU216HW,2012-11-05 15:23:00,
2012-11-05 07:28:00,50.9,49.5,30.35,NNW,338,0.0,0.0,95,0.01,,,0.05,WUHU216HW,2012-11-05 15:28:00,
2012-11-05 07:33:00,50.9,49.5,30.35,NNW,338,0.0,0.0,95,0.01,,,0.05,WUHU216HW,2012-11-05 15:33:00,
2012-11-05 07:38:00,51.1,49.7,30.35,NNW,338,0.0,0.2,95,0.01,,,0.05,WUHU216HW,2012-11-05 15:38:00,
2012-11-05 07:43:00,51.1,49.7,30.35,NNW,338,0.0,0.2,95,0.01,,,0.05,WUHU216HW,2012-11-05 15:43:00,
2012-11-05 07:48:00,51.3,49.9,30.36,NNW,338,0.0,0.0,95,0.00,,,0.05,WUHU216HW,2012-11-05 15:48:00,
2012-11-05 07:53:00,51.3,49.9,30.36,NE,45,1.1,1.8,95,0.00,,,0.05,WUHU216HW,2012-11-05 15:53:00,
2012-11-05 07:58:00,51.3,49.9,30.35,ENE,68,2.0,2.9,95,0.00,,,0.05,WUHU216HW,2012-11-05 15:58:00,
2012-11-05 08:03:00,51.5,50.0,30.36,ENE,68,1.1,2.9,95,0.00,,,0.05,WUHU216HW,2012-11-05 16:03:00,
2012-11-05 08:08:00,51.5,50.0,30.35,ESE,113,1.1,2.7,95,0.00,,,0.05,WUHU216HW,2012-11-05 16:08:00,
2012-11-05 08:13:00,51.7,50.2,30.35,ESE,113,0.9,2.7,95,0.00,,,0.05,WUHU216HW,2012-11-05 16:13:00,
2012-11-05 08:18:00,51.7,50.2,30.35,NE,45,1.6,1.6,95,0.00,,,0.05,WUHU216HW,2012-11-05 16:18:00,
2012-11-05 08:23:00,51.8,50.4,30.35,ESE,113,0.9,1.6,95,0.00,,,0.05,WUHU216HW,2012-11-05 16:23:00,
2012-11-05 08:29:00,51.8,50.4,30.35,NE,45,0.4,2.5,95,0.00,,,0.05,WUHU216HW,2012-11-05 16:29:00,
2012-11-05 08:34:00,52.2,50.8,30.36,ENE,68,1.3,2.5,95,0.00,,,0.05,WUHU216HW,2012-11-05 16:34:00,
2012-11-05 08:39:00,52.2,50.8,30.36,ENE,68,0.9,1.8,95,0.00,,,0.05,WUHU216HW,2012-11-05 16:39:00,
2012-11-05 08:44:00,52.2,50.8,30.37,ENE,68,1.1,3.6,95,0.00,,,0.05,WUHU216HW,2012-11-05 16:44:00,
2012-11-05 08:49:00,52.4,50.9,30.37,ENE,68,0.4,3.6,95,0.00,,,0.05,WUHU216HW,2012-11-05 16:49:00,
2012-11-05 08:54:00,52.4,50.9,30.37,ENE,68,2.5,2.5,95,0.00,,,0.05,WUHU216HW,2012-11-05 16:54:00,
2012-11-05 08:59:00,52.6,51.1,30.36,ESE,113,1.1,3.4,95,0.00,,,0.05,WUHU216HW,2012-11-05 16:59:00,
2012-11-05 09:04:00,52.6,51.1,30.36,ENE,68,0.4,3.4,95,0.00,,,0.05,WUHU216HW,2012-11-05 17:04:00,
2012-11-05 09:09:00,52.4,50.9,30.36,NNE,23,2.5,3.4,95,0.00,,,0.05,WUHU216HW,2012-11-05 17:09:00,
2012-11-05 09:14:00,52.4,50.9,30.36,ENE,68,0.9,3.4,95,0.00,,,0.05,WUHU216HW,2012-11-05 17:14:00,
2012-11-05 09:19:00,52.4,50.9,30.36,ENE,68,1.1,1.8,95,0.00,,,0.05,WUHU216HW,2012-11-05 17:19:00,
2012-11-05 09:24:00,52.4,50.9,30.36,NE,45,1.8,2.7,95,0.00,,,0.05,WUHU216HW,2012-11-05 17:24:00,
2012-11-05 09:29:00,52.4,50.9,30.36,NE,45,1.3,2.7,95,0.00,,,0.05,WUHU216HW,2012-11-05 17:29:00,
2012-11-05 09:34:00,52.4,50.9,30.37,ENE,68,1.8,2.2,95,0.00,,,0.05,WUHU216HW,2012-11-05 17:34:00,
2012-11-05 09:39:00,52.4,50.9,30.36,NE,45,1.6,2.5,95,0.00,,,0.05,WUHU216HW,2012-11-05 17:39:00,
2012-11-05 09:44:00,52.6,51.1,30.36,NE,45,3.4,4.0,95,0.00,,,0.05,WUHU216HW,2012-11-05 17:44:00,
2012-11-05 09:49:00,52.6,51.1,30.36,NE,45,1.8,4.0,95,0.00,,,0.05,WUHU216HW,2012-11-05 17:49:00,
2012-11-05 09:54:00,52.6,51.1,30.36,NE,45,2.5,3.4,95,0.00,,,0.05,WUHU216HW,2012-11-05 17:54:00,
2012-11-05 09:59:00,52.6,51.1,30.36,ENE,68,1.1,2.9,95,0.00,,,0.05,WUHU216HW,2012-11-05 17:59:00,
2012-11-05 10:04:00,52.6,51.1,30.37,NE,45,1.8,2.7,95,0.00,,,0.05,WUHU216HW,2012-11-05 18:04:00,
2012-11-05 10:09:00,52.7,51.3,30.36,ENE,68,1.6,2.9,95,0.00,,,0.05,WUHU216HW,2012-11-05 18:09:00,
2012-11-05 10:14:00,52.7,51.3,30.36,ESE,113,0.9,2.9,95,0.00,,,0.05,WUHU216HW,2012-11-05 18:14:00,
2012-11-05 10:19:00,52.9,51.5,30.37,East,90,0.2,1.3,95,0.00,,,0.05,WUHU216HW,2012-11-05 18:19:00,
2012-11-05 10:24:00,52.9,51.8,30.37,North,0,1.1,1.8,96,0.00,,,0.05,WUHU216HW,2012-11-05 18:24:00,
2012-11-05 10:29:00,52.9,51.5,30.37,East,90,1.3,1.8,95,0.00,,,0.05,WUHU216HW,2012-11-05 18:29:00,
2012-11-05 10:34:00,52.9,51.5,30.37,ENE,68,0.7,1.8,95,0.00,,,0.05,WUHU216HW,2012-11-05 18:34:00,
2012-11-05 10:39:00,53.3,52.1,30.36,NNE,23,1.8,1.8,96,0.00,,,0.05,WUHU216HW,2012-11-05 18:39:00,
2012-11-05 10:44:00,53.5,52.0,30.36,SE,135,2.0,2.0,95,0.00,,,0.05,WUHU216HW,2012-11-05 18:44:00,
2012-11-05 10:49:00,53.6,52.2,30.37,NNE,23,2.0,2.0,95,0.00,,,0.05,WUHU216HW,2012-11-05 18:49:00,
2012-11-05 10:54:00,53.6,52.2,30.37,NE,45,0.9,2.0,95,0.00,,,0.05,WUHU216HW,2012-11-05 18:54:00,
2012-11-05 10:59:00,53.8,52.4,30.37,NNE,23,2.5,2.5,95,0.00,,,0.05,WUHU216HW,2012-11-05 18:59:00,
2012-11-05 11:04:00,54.0,52.6,30.37,NNE,23,1.6,2.5,95,0.00,,,0.05,WUHU216HW,2012-11-05 19:04:00,
2012-11-05 11:09:00,54.4,52.9,30.37,North,0,0.9,2.5,95,0.00,,,0.05,WUHU216HW,2012-11-05 19:09:00,
2012-11-05 11:14:00,54.5,52.8,30.37,NNW,338,1.3,4.0,94,0.00,,,0.05,WUHU216HW,2012-11-05 19:14:00,
2012-11-05 11:19:00,54.9,53.2,30.37,NNW,338,0.9,4.0,94,0.00,,,0.05,WUHU216HW,2012-11-05 19:19:00,
2012-11-05 11:24:00,55.1,53.4,30.37,North,0,1.8,2.5,94,0.00,,,0.05,WUHU216HW,2012-11-05 19:24:00,
2012-11-05 11:29:00,55.4,53.7,30.37,ESE,113,1.1,3.6,94,0.00,,,0.05,WUHU216HW,2012-11-05 19:29:00,
2012-11-05 11:34:00,55.4,53.7,30.37,East,90,2.5,4.5,94,0.00,,,0.05,WUHU216HW,2012-11-05 19:34:00,
2012-11-05 11:39:00,55.4,53.5,30.36,SSE,158,1.1,4.5,93,0.00,,,0.05,WUHU216HW,2012-11-05 19:39:00,
2012-11-05 11:44:00,55.6,53.7,30.36,ENE,68,1.3,3.4,93,0.00,,,0.05,WUHU216HW,2012-11-05 19:44:00,
2012-11-05 11:49:00,55.6,53.7,30.36,East,90,2.7,5.1,93,0.00,,,0.05,WUHU216HW,2012-11-05 19:49:00,
2012-11-05 11:54:00,55.4,53.5,30.36,NE,45,2.2,5.1,93,0.00,,,0.05,WUHU216HW,2012-11-05 19:54:00,
2012-11-05 11:59:00,55.4,53.1,30.35,SSW,203,1.1,2.7,92,0.00,,,0.05,WUHU216HW,2012-11-05 19:59:00,
2012-11-05 12:04:00,55.4,53.1,30.35,ESE,113,0.9,4.7,92,0.00,,,0.05,WUHU216HW,2012-11-05 20:04:00,
2012-11-05 12:09:00,55.4,53.1,30.35,ENE,68,1.1,4.7,92,0.00,,,0.05,WUHU216HW,2012-11-05 20:09:00,
2012-11-05 12:14:00,55.6,53.7,30.35,NE,45,0.9,3.4,93,0.00,,,0.05,WUHU216HW,2012-11-05 20:14:00,
2012-11-05 12:19:00,55.6,53.0,30.35,NNE,23,5.8,5.8,91,0.00,,,0.05,WUHU216HW,2012-11-05 20:19:00,
2012-11-05 12:23:00,55.6,53.0,30.35,NE,45,2.5,5.8,91,0.00,,,0.05,WUHU216HW,2012-11-05 20:23:00,
2012-11-05 12:28:00,55.4,52.6,30.35,NNE,23,3.4,5.8,90,0.00,,,0.05,WUHU216HW,2012-11-05 20:28:00,
2012-11-05 12:33:00,55.6,52.7,30.35,NNW,338,1.6,4.9,90,0.00,,,0.05,WUHU216HW,2012-11-05 20:33:00,
2012-11-05 12:38:00,55.4,52.6,30.34,ENE,68,2.2,4.9,90,0.00,,,0.05,WUHU216HW,2012-11-05 20:38:00,
2012-11-05 12:43:00,55.4,52.6,30.35,NNW,338,0.2,3.4,90,0.00,,,0.05,WUHU216HW,2012-11-05 20:43:00,
2012-11-05 12:48:00,55.3,52.4,30.34,NNW,338,2.5,4.0,90,0.00,,,0.05,WUHU216HW,2012-11-05 20:48:00,
2012-11-05 12:53:00,55.1,51.8,30.34,NE,45,2.5,4.0,89,0.00,,,0.05,WUHU216HW,2012-11-05 20:53:00,
2012-11-05 12:58:00,55.1,51.8,30.34,NE,45,1.3,6.0,89,0.00,,,0.05,WUHU216HW,2012-11-05 20:58:00,
2012-11-05 13:03:00,55.1,51.8,30.34,ESE,113,4.0,6.0,89,0.00,,,0.05,WUHU216HW,2012-11-05 21:03:00,
2012-11-05 13:08:00,55.1,51.8,30.34,NNE,23,1.1,6.3,89,0.00,,,0.05,WUHU216HW,2012-11-05 21:08:00,
2012-11-05 13:13:00,55.1,51.6,30.34,North,0,1.8,6.3,88,0.00,,,0.05,WUHU216HW,2012-11-05 21:13:00,
2012-11-05 13:18:00,55.1,51.8,30.35,ESE,113,2.5,6.0,89,0.00,,,0.05,WUHU216HW,2012-11-05 21:18:00,
2012-11-05 13:23:00,55.1,51.8,30.35,SSW,203,1.8,2.5,89,0.00,,,0.05,WUHU216HW,2012-11-05 21:23:00,
2012-11-05 13:28:00,55.1,51.8,30.34,NE,45,3.4,4.0,89,0.00,,,0.05,WUHU216HW,2012-11-05 21:28:00,
2012-11-05 13:33:00,55.1,51.6,30.34,NE,45,5.6,5.6,88,0.00,,,0.05,WUHU216HW,2012-11-05 21:33:00,
2012-11-05 13:38:00,54.9,50.8,30.33,NE,45,2.5,8.1,86,0.00,,,0.05,WUHU216HW,2012-11-05 21:38:00,
2012-11-05 13:43:00,54.9,51.0,30.33,ENE,68,1.1,8.1,87,0.00,,,0.05,WUHU216HW,2012-11-05 21:43:00,
2012-11-05 13:48:00,54.7,50.6,30.33,NNE,23,4.0,8.5,86,0.00,,,0.05,WUHU216HW,2012-11-05 21:48:00,
2012-11-05 13:53:00,54.5,50.4,30.33,North,0,4.0,8.5,86,0.00,,,0.05,WUHU216HW,2012-11-05 21:53:00,
2012-11-05 13:58:00,54.4,50.2,30.32,ENE,68,1.8,4.0,86,0.00,,,0.05,WUHU216HW,2012-11-05 21:58:00,
2012-11-05 14:03:00,54.4,50.6,30.32,ENE,68,0.9,4.0,87,0.00,,,0.05,WUHU216HW,2012-11-05 22:03:00,
2012-11-05 14:08:00,54.0,49.9,30.31,NE,45,3.8,3.8,86,0.00,,,0.05,WUHU216HW,2012-11-05 22:08:00,
2012-11-05 14:14:00,54.0,50.2,30.31,East,90,0.9,3.8,87,0.00,,,0.05,WUHU216HW,2012-11-05 22:14:00,
2012-11-05 14:19:00,53.8,50.3,30.31,NNE,23,0.9,3.8,88,0.00,,,0.05,WUHU216HW,2012-11-05 22:19:00,
2012-11-05 14:23:00,53.8,50.3,30.31,East,90,2.0,4.0,88,0.00,,,0.05,WUHU216HW,2012-11-05 22:23:00,
2012-11-05 14:29:00,53.8,49.7,30.31,ENE,68,1.1,4.0,86,0.00,,,0.05,WUHU216HW,2012-11-05 22:29:00,
2012-11-05 14:34:00,54.0,49.9,30.31,North,0,1.6,4.3,86,0.00,,,0.05,WUHU216HW,2012-11-05 22:34:00,
2012-11-05 14:39:00,54.0,50.2,30.31,SE,135,0.0,4.3,87,0.00,,,0.05,WUHU216HW,2012-11-05 22:39:00,
2012-11-05 14:44:00,53.8,49.7,30.31,NNE,23,5.1,5.1,86,0.00,,,0.05,WUHU216HW,2012-11-05 22:44:00,
2012-11-05 14:49:00,53.6,49.5,30.30,NE,45,4.5,5.6,86,0.00,,,0.05,WUHU216HW,2012-11-05 22:49:00,
2012-11-05 14:54:00,53.6,49.5,30.30,North,0,1.3,5.6,86,0.00,,,0.05,WUHU216HW,2012-11-05 22:54:00,
2012-11-05 14:59:00,53.6,49.9,30.30,NNW,338,0.4,3.6,87,0.00,,,0.05,WUHU216HW,2012-11-05 22:59:00,
2012-11-05 15:04:00,53.5,49.7,30.30,North,0,1.8,2.5,87,0.00,,,0.05,WUHU216HW,2012-11-05 23:04:00,
2012-11-05 15:09:00,53.5,49.7,30.30,WSW,248,0.4,2.5,87,0.00,,,0.05,WUHU216HW,2012-11-05 23:09:00,
2012-11-05 15:14:00,53.3,49.5,30.29,NNE,23,1.8,3.4,87,0.00,,,0.05,WUHU216HW,2012-11-05 23:14:00,
2012-11-05 15:19:00,53.1,49.3,30.29,North,0,0.4,3.4,87,0.00,,,0.05,WUHU216HW,2012-11-05 23:19:00,
2012-11-05 15:24:00,52.9,49.2,30.30,North,0,2.0,2.9,87,0.00,,,0.05,WUHU216HW,2012-11-05 23:24:00,
2012-11-05 15:29:00,52.9,49.2,30.30,NW,315,1.6,2.9,87,0.00,,,0.05,WUHU216HW,2012-11-05 23:29:00,
2012-11-05 15:34:00,52.9,49.2,30.30,NNW,338,0.4,2.0,87,0.00,,,0.05,WUHU216HW,2012-11-05 23:34:00,
2012-11-05 15:39:00,52.7,49.0,30.29,NNE,23,0.0,1.8,87,0.00,,,0.05,WUHU216HW,2012-11-05 23:39:00,
2012-11-05 15:44:00,52.7,49.0,30.29,North,0,0.0,1.3,87,0.00,,,0.05,WUHU216HW,2012-11-05 23:44:00,
2012-11-05 15:49:00,52.6,48.8,30.29,ENE,68,0.9,2.7,87,0.00,,,0.05,WUHU216HW,2012-11-05 23:49:00,
2012-11-05 15:54:00,52.4,48.9,30.29,NE,45,1.8,2.7,88,0.00,,,0.05,WUHU216HW,2012-11-05 23:54:00,
2012-11-05 15:59:00,52.4,48.6,30.29,NNW,338,2.2,2.7,87,0.00,,,0.05,WUHU216HW,2012-11-05 23:59:00,
2012-11-05 16:04:00,52.2,48.7,30.29,NNE,23,1.1,2.7,88,0.00,,,0.05,WUHU216HW,2012-11-06 00:04:00,
2012-11-05 16:09:00,52.4,48.9,30.29,North,0,0.7,2.2,88,0.00,,,0.05,WUHU216HW,2012-11-06 00:09:00,
2012-11-05 16:14:00,52.2,48.7,30.29,ENE,68,1.6,2.9,88,0.00,,,0.05,WUHU216HW,2012-11-06 00:14:00,
2012-11-05 16:19:00,52.0,48.9,30.28,NE,45,1.1,2.9,89,0.00,,,0.05,WUHU216HW,2012-11-06 00:19:00,
2012-11-05 16:24:00,51.8,48.7,30.28,North,0,0.9,1.6,89,0.00,,,0.05,WUHU216HW,2012-11-06 00:24:00,
2012-11-05 16:29:00,51.7,48.5,30.28,WSW,248,0.9,2.0,89,0.00,,,0.05,WUHU216HW,2012-11-06 00:29:00,
2012-11-05 16:34:00,51.7,48.5,30.28,North,0,0.0,2.0,89,0.00,,,0.05,WUHU216HW,2012-11-06 00:34:00,
2012-11-05 16:39:00,51.7,48.5,30.28,NW,315,0.9,2.0,89,0.00,,,0.05,WUHU216HW,2012-11-06 00:39:00,
2012-11-05 16:44:00,51.5,48.3,30.27,NNE,23,0.4,2.5,89,0.00,,,0.05,WUHU216HW,2012-11-06 00:44:00,
2012-11-05 16:49:00,51.3,48.2,30.27,North,0,0.4,2.5,89,0.00,,,0.05,WUHU216HW,2012-11-06 00:49:00,
2012-11-05 16:54:00,51.3,48.2,30.27,NNW,338,1.8,2.0,89,0.00,,,0.05,WUHU216HW,2012-11-06 00:54:00,
2012-11-05 16:59:00,51.1,48.0,30.26,North,0,1.1,2.0,89,0.00,,,0.05,WUHU216HW,2012-11-06 00:59:00,
2012-11-05 17:04:00,50.9,48.1,30.27,WSW,248,0.4,2.0,90,0.00,,,0.05,WUHU216HW,2012-11-06 01:04:00,
2012-11-05 17:09:00,50.8,47.9,30.26,East,90,0.9,3.4,90,0.00,,,0.05,WUHU216HW,2012-11-06 01:09:00,
2012-11-05 17:14:00,50.6,47.4,30.25,NNE,23,1.1,3.4,89,0.00,,,0.05,WUHU216HW,2012-11-06 01:14:00,
2012-11-05 17:19:00,50.6,47.4,30.26,NNE,23,1.6,1.6,89,0.00,,,0.05,WUHU216HW,2012-11-06 01:19:00,
2012-11-05 17:24:00,50.4,47.3,30.26,NNE,23,1.8,1.8,89,0.00,,,0.05,WUHU216HW,2012-11-06 01:24:00,
2012-11-05 17:29:00,50.4,47.3,30.26,ENE,68,1.6,1.8,89,0.00,,,0.05,WUHU216HW,2012-11-06 01:29:00,
2012-11-05 17:34:00,50.2,47.3,30.26,North,0,0.0,1.8,90,0.00,,,0.05,WUHU216HW,2012-11-06 01:34:00,
2012-11-05 17:39:00,50.2,47.3,30.27,NNW,338,0.4,1.6,90,0.00,,,0.05,WUHU216HW,2012-11-06 01:39:00,
2012-11-05 17:44:00,50.0,47.2,30.27,NNE,23,0.7,1.1,90,0.00,,,0.05,WUHU216HW,2012-11-06 01:44:00,
2012-11-05 17:49:00,50.0,47.2,30.27,North,0,0.9,1.8,90,0.00,,,0.05,WUHU216HW,2012-11-06 01:49:00,
2012-11-05 17:54:00,50.0,47.2,30.26,NNE,23,1.3,1.8,90,0.00,,,0.05,WUHU216HW,2012-11-06 01:54:00,
2012-11-05 17:59:00,49.9,47.0,30.25,NE,45,2.2,2.7,90,0.00,,,0.05,WUHU216HW,2012-11-06 01:59:00,
2012-11-05 18:04:00,49.7,46.8,30.25,North,0,3.1,3.4,90,0.00,,,0.05,WUHU216HW,2012-11-06 02:04:00,
2012-11-05 18:09:00,49.7,46.8,30.25,ENE,68,0.4,3.4,90,0.00,,,0.05,WUHU216HW,2012-11-06 02:09:00,
2012-11-05 18:14:00,49.7,46.8,30.25,NE,45,0.2,3.1,90,0.00,,,0.05,WUHU216HW,2012-11-06 02:14:00,
2012-11-05 18:19:00,49.5,46.7,30.25,NNE,23,2.0,2.9,90,0.00,,,0.05,WUHU216HW,2012-11-06 02:19:00,
2012-11-05 18:24:00,49.5,46.7,30.25,East,90,0.7,3.6,90,0.00,,,0.05,WUHU216HW,2012-11-06 02:24:00,
2012-11-05 18:29:00,49.5,46.7,30.25,NE,45,0.7,3.6,90,0.00,,,0.05,WUHU216HW,2012-11-06 02:29:00,
2012-11-05 18:34:00,49.3,46.5,30.25,ESE,113,1.6,2.0,90,0.00,,,0.05,WUHU216HW,2012-11-06 02:34:00,
2012-11-05 18:39:00,49.3,46.5,30.24,NE,45,3.1,3.1,90,0.00,,,0.05,WUHU216HW,2012-11-06 02:39:00,
2012-11-05 18:44:00,49.1,46.4,30.24,NNE,23,0.0,3.1,90,0.00,,,0.05,WUHU216HW,2012-11-06 02:44:00,
2012-11-05 18:49:00,49.1,46.4,30.24,NE,45,1.8,3.1,90,0.00,,,0.05,WUHU216HW,2012-11-06 02:49:00,
2012-11-05 18:54:00,49.0,46.2,30.24,NE,45,3.4,3.4,90,0.00,,,0.05,WUHU216HW,2012-11-06 02:54:00,
2012-11-05 18:59:00,49.0,46.2,30.24,NE,45,0.4,3.4,90,0.00,,,0.05,WUHU216HW,2012-11-06 02:59:00,
2012-11-05 19:03:00,49.0,46.4,30.24,NNE,23,2.0,3.4,91,0.00,,,0.05,WUHU216HW,2012-11-06 03:03:00,
2012-11-05 19:08:00,48.8,46.3,30.24,ENE,68,0.4,2.5,91,0.00,,,0.05,WUHU216HW,2012-11-06 03:08:00,
2012-11-05 19:13:00,48.8,46.3,30.23,NE,45,3.4,3.4,91,0.00,,,0.05,WUHU216HW,2012-11-06 03:13:00,
2012-11-05 19:18:00,48.8,46.3,30.23,NE,45,1.1,3.6,91,0.00,,,0.05,WUHU216HW,2012-11-06 03:18:00,
2012-11-05 19:23:00,48.8,46.3,30.23,NE,45,1.1,3.6,91,0.00,,,0.05,WUHU216HW,2012-11-06 03:23:00,
2012-11-05 19:28:00,48.8,46.3,30.23,NNE,23,1.3,2.9,91,0.00,,,0.05,WUHU216HW,2012-11-06 03:28:00,
2012-11-05 19:33:00,48.8,46.3,30.23,North,0,0.0,2.9,91,0.00,,,0.05,WUHU216HW,2012-11-06 03:33:00,
2012-11-05 19:38:00,48.8,46.3,30.23,NE,45,1.1,1.3,91,0.00,,,0.05,WUHU216HW,2012-11-06 03:38:00,
2012-11-05 19:43:00,48.8,46.3,30.23,NE,45,1.8,1.8,91,0.00,,,0.05,WUHU216HW,2012-11-06 03:43:00,
2012-11-05 19:49:00,48.8,46.3,30.23,NE,45,2.0,3.4,91,0.00,,,0.05,WUHU216HW,2012-11-06 03:49:00,
2012-11-05 19:54:00,48.8,46.3,30.23,ENE,68,1.1,3.4,91,0.00,,,0.05,WUHU216HW,2012-11-06 03:54:00,
2012-11-05 19:59:00,48.8,46.3,30.22,NNE,23,1.1,2.0,91,0.00,,,0.05,WUHU216HW,2012-11-06 03:59:00,
2012-11-05 20:04:00,48.8,46.3,30.22,North,0,1.3,2.2,91,0.00,,,0.05,WUHU216HW,2012-11-06 04:04:00,
2012-11-05 20:09:00,48.8,46.3,30.22,NE,45,0.0,2.2,91,0.00,,,0.05,WUHU216HW,2012-11-06 04:09:00,
2012-11-05 20:14:00,48.8,46.3,30.21,NE,45,2.5,2.7,91,0.00,,,0.05,WUHU216HW,2012-11-06 04:14:00,
2012-11-05 20:19:00,48.6,46.2,30.21,NNE,23,1.1,2.7,91,0.00,,,0.05,WUHU216HW,2012-11-06 04:19:00,
2012-11-05 20:24:00,48.6,46.2,30.21,North,0,0.4,2.5,91,0.00,,,0.05,WUHU216HW,2012-11-06 04:24:00,
2012-11-05 20:29:00,48.6,46.2,30.21,North,0,1.1,1.6,91,0.00,,,0.05,WUHU216HW,2012-11-06 04:29:00,
2012-11-05 20:34:00,48.6,46.2,30.21,ESE,113,0.4,1.1,91,0.00,,,0.05,WUHU216HW,2012-11-06 04:34:00,
2012-11-05 20:39:00,48.6,46.2,30.21,SE,135,0.9,1.3,91,0.00,,,0.05,WUHU216HW,2012-11-06 04:39:00,
2012-11-05 20:44:00,48.6,46.2,30.20,NNE,23,3.1,3.1,91,0.00,,,0.05,WUHU216HW,2012-11-06 04:44:00,
2012-11-05 20:49:00,48.6,46.2,30.20,NE,45,1.1,3.1,91,0.00,,,0.05,WUHU216HW,2012-11-06 04:49:00,
2012-11-05 20:54:00,48.4,46.3,30.20,NE,45,0.4,3.1,92,0.00,,,0.05,WUHU216HW,2012-11-06 04:54:00,
2012-11-05 20:59:00,48.4,46.3,30.20,NNE,23,0.0,1.8,92,0.00,,,0.05,WUHU216HW,2012-11-06 04:59:00,
2012-11-05 21:00:00,48.4,46.3,30.20,North,0,0.4,1.8,92,0.00,,,0.05,WUHU216HW,2012-11-06 05:00:00,
2012-11-05 21:01:00,48.4,46.3,30.20,NNE,23,0.0,1.8,92,0.00,,,0.05,WUHU216HW,2012-11-06 05:01:00,
2012-11-05 21:06:00,48.4,46.3,30.20,NNE,23,1.3,1.8,92,0.00,,,0.05,WUHU216HW,2012-11-06 05:06:00,
2012-11-05 21:11:00,48.2,46.1,30.19,NNE,23,0.4,2.5,92,0.00,,,0.05,WUHU216HW,2012-11-06 05:11:00,
2012-11-05 21:16:00,48.4,46.3,30.19,NE,45,0.4,2.5,92,0.00,,,0.05,WUHU216HW,2012-11-06 05:16:00,
2012-11-05 21:21:00,48.2,46.1,30.19,North,0,0.9,1.8,92,0.00,,,0.05,WUHU216HW,2012-11-06 05:21:00,
2012-11-05 21:26:00,48.2,46.1,30.18,NE,45,0.7,2.7,92,0.00,,,0.05,WUHU216HW,2012-11-06 05:26:00,
2012-11-05 21:31:00,48.2,46.1,30.18,NE,45,2.9,2.9,92,0.00,,,0.05,WUHU216HW,2012-11-06 05:31:00,
2012-11-05 21:36:00,48.1,45.9,30.17,East,90,0.2,2.9,92,0.00,,,0.05,WUHU216HW,2012-11-06 05:36:00,
2012-11-05 21:42:00,48.1,45.9,30.17,NE,45,0.0,0.9,92,0.00,,,0.05,WUHU216HW,2012-11-06 05:42:00,
2012-11-05 21:47:00,48.1,45.9,30.17,NNE,23,0.4,1.8,92,0.00,,,0.05,WUHU216HW,2012-11-06 05:47:00,
2012-11-05 21:52:00,47.9,45.7,30.17,NNE,23,0.0,1.8,92,0.00,,,0.05,WUHU216HW,2012-11-06 05:52:00,
2012-11-05 21:57:00,47.9,45.7,30.18,North,0,0.0,0.4,92,0.00,,,0.05,WUHU216HW,2012-11-06 05:57:00,
2012-11-05 22:02:00,47.9,45.7,30.18,NNW,338,0.4,0.4,92,0.00,,,0.05,WUHU216HW,2012-11-06 06:02:00,
2012-11-05 22:07:00,47.9,45.7,30.17,NNW,338,0.0,0.4,92,0.00,,,0.05,WUHU216HW,2012-11-06 06:07:00,
2012-11-05 22:12:00,47.9,45.7,30.17,NNW,338,0.2,0.4,92,0.00,,,0.05,WUHU216HW,2012-11-06 06:12:00,
2012-11-05 22:17:00,47.7,45.5,30.17,NNW,338,0.4,0.7,92,0.00,,,0.05,WUHU216HW,2012-11-06 06:17:00,
2012-11-05 22:22:00,47.7,45.5,30.17,NNE,23,0.0,0.9,92,0.00,,,0.05,WUHU216HW,2012-11-06 06:22:00,
2012-11-05 22:27:00,47.7,45.5,30.17,North,0,0.0,0.9,92,0.00,,,0.05,WUHU216HW,2012-11-06 06:27:00,
2012-11-05 22:32:00,47.7,45.5,30.17,North,0,0.4,1.1,92,0.00,,,0.05,WUHU216HW,2012-11-06 06:32:00,
2012-11-05 22:37:00,47.7,45.5,30.16,North,0,0.0,1.1,92,0.00,,,0.05,WUHU216HW,2012-11-06 06:37:00,
2012-11-05 22:42:00,47.7,45.5,30.16,North,0,0.4,1.1,92,0.00,,,0.05,WUHU216HW,2012-11-06 06:42:00,
2012-11-05 22:47:00,47.5,45.4,30.16,NNW,338,0.9,1.1,92,0.00,,,0.05,WUHU216HW,2012-11-06 06:47:00,
2012-11-05 22:52:00,47.5,45.4,30.15,NNW,338,0.9,1.1,92,0.00,,,0.05,WUHU216HW,2012-11-06 06:52:00,
2012-11-05 22:57:00,47.3,45.2,30.15,West,270,1.3,1.6,92,0.00,,,0.05,WUHU216HW,2012-11-06 06:57:00,
2012-11-05 23:02:00,47.2,45.0,30.15,WSW,248,1.1,1.6,92,0.00,,,0.05,WUHU216HW,2012-11-06 07:02:00,
2012-11-05 23:07:00,47.2,45.0,30.15,WSW,248,1.1,1.6,92,0.00,,,0.05,WUHU216HW,2012-11-06 07:07:00,
2012-11-05 23:12:00,47.0,44.8,30.15,WSW,248,0.9,1.3,92,0.00,,,0.05,WUHU216HW,2012-11-06 07:12:00,
2012-11-05 23:17:00,46.8,44.6,30.15,WSW,248,1.1,1.3,92,0.00,,,0.05,WUHU216HW,2012-11-06 07:17:00,
2012-11-05 23:22:00,46.6,44.5,30.15,West,270,1.3,2.0,92,0.00,,,0.05,WUHU216HW,2012-11-06 07:22:00,
2012-11-05 23:27:00,46.4,44.3,30.15,West,270,1.1,2.0,92,0.00,,,0.05,WUHU216HW,2012-11-06 07:27:00,
2012-11-05 23:32:00,46.4,44.3,30.15,West,270,1.1,2.0,92,0.00,,,0.05,WUHU216HW,2012-11-06 07:32:00,
2012-11-05 23:37:00,46.4,44.3,30.15,West,270,1.1,1.1,92,0.00,,,0.05,WUHU216HW,2012-11-06 07:37:00,
2012-11-05 23:42:00,46.3,44.1,30.14,NNW,338,0.4,1.1,92,0.00,,,0.05,WUHU216HW,2012-11-06 07:42:00,
2012-11-05 23:47:00,46.3,44.1,30.14,North,0,0.0,1.1,92,0.00,,,0.05,WUHU216HW,2012-11-06 07:47:00,
2012-11-05 23:52:00,46.4,44.6,30.14,NNE,23,0.0,1.1,93,0.00,,,0.05,WUHU216HW,2012-11-06 07:52:00,
2012-11-05 23:57:00,46.4,44.6,30.13,North,0,0.0,1.1,93,0.00,,,0.05,WUHU216HW,2012-11-06 07:57:00,